createdAt,value
2022-11-20T00:00:18.530Z,1003.57
2022-11-20T00:01:18.493Z,1003.57
2022-11-20T00:02:18.486Z,1003.53
2022-11-20T00:03:18.428Z,1003.54
2022-11-20T00:04:18.383Z,1003.51
2022-11-20T00:05:18.336Z,1003.48
2022-11-20T00:06:18.300Z,1003.49
2022-11-20T00:07:18.302Z,1003.47
2022-11-20T00:08:18.222Z,1003.47
2022-11-20T00:09:18.557Z,1003.49
2022-11-20T00:10:18.155Z,1003.44
2022-11-20T00:11:18.111Z,1003.46
2022-11-20T00:12:18.072Z,1003.47
2022-11-20T00:13:18.032Z,1003.49
2022-11-20T00:14:18.000Z,1003.45
2022-11-20T00:15:17.961Z,1003.46
2022-11-20T00:16:17.912Z,1003.41
2022-11-20T00:17:17.876Z,1003.46
2022-11-20T00:18:17.835Z,1003.45
2022-11-20T00:19:18.216Z,1003.49
2022-11-20T00:20:17.787Z,1003.52
2022-11-20T00:21:17.720Z,1003.53
2022-11-20T00:22:17.688Z,1003.53
2022-11-20T00:23:17.717Z,1003.51
2022-11-20T00:24:17.613Z,1003.48
2022-11-20T00:25:17.583Z,1003.48
2022-11-20T00:26:17.533Z,1003.49
2022-11-20T00:27:17.493Z,1003.44
2022-11-20T00:28:17.454Z,1003.44
2022-11-20T00:29:17.495Z,1003.46
2022-11-20T00:30:17.377Z,1003.46
2022-11-20T00:31:17.357Z,1003.53
2022-11-20T00:32:17.309Z,1003.53
2022-11-20T00:33:17.277Z,1003.59
2022-11-20T00:34:17.226Z,1003.59
2022-11-20T00:35:17.184Z,1003.59
2022-11-20T00:36:17.150Z,1003.63
2022-11-20T00:37:17.126Z,1003.64
2022-11-20T00:38:17.073Z,1003.62
2022-11-20T00:39:17.031Z,1003.61
2022-11-20T00:40:17.071Z,1003.61
2022-11-20T00:41:16.957Z,1003.65
2022-11-20T00:42:16.919Z,1003.63
2022-11-20T00:43:16.892Z,1003.65
2022-11-20T00:44:16.852Z,1003.61
2022-11-20T00:45:16.803Z,1003.59
2022-11-20T00:46:16.772Z,1003.59
2022-11-20T00:47:16.738Z,1003.61
2022-11-20T00:48:16.689Z,1003.60
2022-11-20T00:49:16.651Z,1003.53
2022-11-20T00:50:16.612Z,1003.56
2022-11-20T00:51:16.573Z,1003.56
2022-11-20T00:52:16.609Z,1003.54
2022-11-20T00:53:16.499Z,1003.55
2022-11-20T00:54:16.457Z,1003.54
2022-11-20T00:55:16.419Z,1003.51
2022-11-20T00:56:16.386Z,1003.46
2022-11-20T00:57:16.343Z,1003.44
2022-11-20T00:58:16.309Z,1003.39
2022-11-20T00:59:16.281Z,1003.39
2022-11-20T01:00:16.225Z,1003.43
2022-11-20T01:01:16.276Z,1003.43
2022-11-20T01:02:16.154Z,1003.45
2022-11-20T01:03:16.111Z,1003.46
2022-11-20T01:04:16.068Z,1003.48
2022-11-20T01:05:16.038Z,1003.50
2022-11-20T01:06:15.995Z,1003.48
2022-11-20T01:07:15.979Z,1003.46
2022-11-20T01:08:15.918Z,1003.46
2022-11-20T01:09:15.880Z,1003.49
2022-11-20T01:10:15.845Z,1003.47
2022-11-20T01:11:15.805Z,1003.47
2022-11-20T01:12:15.779Z,1003.49
2022-11-20T01:13:15.736Z,1003.49
2022-11-20T01:14:15.687Z,1003.47
2022-11-20T01:15:15.654Z,1003.44
2022-11-20T01:16:15.631Z,1003.45
2022-11-20T01:17:15.579Z,1003.39
2022-11-20T01:18:15.536Z,1003.41
2022-11-20T01:19:17.940Z,1003.38
2022-11-20T01:20:15.452Z,1003.40
2022-11-20T01:21:15.423Z,1003.36
2022-11-20T01:22:15.376Z,1003.38
2022-11-20T01:23:15.346Z,1003.32
2022-11-20T01:24:15.317Z,1003.36
2022-11-20T01:25:15.323Z,1003.34
2022-11-20T01:26:15.234Z,1003.34
2022-11-20T01:27:15.184Z,1003.31
2022-11-20T01:28:15.145Z,1003.31
2022-11-20T01:29:15.128Z,1003.24
2022-11-20T01:30:15.072Z,1003.23
2022-11-20T01:31:15.034Z,1003.20
2022-11-20T01:32:14.998Z,1003.15
2022-11-20T01:33:14.963Z,1003.15
2022-11-20T01:34:14.932Z,1003.10
2022-11-20T01:35:14.886Z,1003.16
2022-11-20T01:36:14.843Z,1003.19
2022-11-20T01:37:14.805Z,1003.23
2022-11-20T01:38:14.769Z,1003.26
2022-11-20T01:39:14.732Z,1003.23
2022-11-20T01:40:14.689Z,1003.22
2022-11-20T01:41:14.650Z,1003.23
2022-11-20T01:42:14.613Z,1003.27
2022-11-20T01:43:14.571Z,1003.24
2022-11-20T01:44:14.538Z,1003.25
2022-11-20T01:45:14.496Z,1003.25
2022-11-20T01:46:14.456Z,1003.24
2022-11-20T01:47:14.422Z,1003.15
2022-11-20T01:48:14.379Z,1003.17
2022-11-20T01:49:14.339Z,1003.17
2022-11-20T01:50:14.306Z,1003.16
2022-11-20T01:51:14.265Z,1003.20
2022-11-20T01:52:14.233Z,1003.19
2022-11-20T01:53:14.190Z,1003.19
2022-11-20T01:54:14.150Z,1003.20
2022-11-20T01:55:14.112Z,1003.17
2022-11-20T01:56:14.068Z,1003.18
2022-11-20T01:57:14.038Z,1003.17
2022-11-20T01:58:13.995Z,1003.16
2022-11-20T01:59:13.959Z,1003.14
2022-11-20T02:00:13.920Z,1003.15
2022-11-20T02:01:13.990Z,1003.17
2022-11-20T02:02:13.865Z,1003.13
2022-11-20T02:03:13.805Z,1003.13
2022-11-20T02:04:13.763Z,1003.11
2022-11-20T02:05:13.724Z,1003.12
2022-11-20T02:06:13.689Z,1003.14
2022-11-20T02:07:13.673Z,1003.11
2022-11-20T02:08:13.611Z,1003.15
2022-11-20T02:09:13.568Z,1003.14
2022-11-20T02:10:13.533Z,1003.13
2022-11-20T02:11:13.495Z,1003.14
2022-11-20T02:12:13.457Z,1003.16
2022-11-20T02:13:13.419Z,1003.16
2022-11-20T02:14:13.383Z,1003.15
2022-11-20T02:15:13.348Z,1003.15
2022-11-20T02:16:13.308Z,1003.13
2022-11-20T02:17:13.267Z,1003.08
2022-11-20T02:18:13.299Z,1003.10
2022-11-20T02:19:13.189Z,1003.10
2022-11-20T02:20:13.148Z,1003.10
2022-11-20T02:21:13.107Z,1003.08
2022-11-20T02:22:13.074Z,1003.07
2022-11-20T02:23:13.030Z,1003.08
2022-11-20T02:24:12.995Z,1003.05
2022-11-20T02:25:12.950Z,1003.01
2022-11-20T02:26:12.914Z,1003.01
2022-11-20T02:27:12.883Z,1003.00
2022-11-20T02:28:12.840Z,1003.00
2022-11-20T02:29:12.798Z,1003.02
2022-11-20T02:30:12.762Z,1002.98
2022-11-20T02:31:12.720Z,1003.02
2022-11-20T02:32:12.681Z,1003.03
2022-11-20T02:33:12.645Z,1003.00
2022-11-20T02:34:12.609Z,1003.01
2022-11-20T02:35:12.568Z,1003.02
2022-11-20T02:36:12.536Z,1003.03
2022-11-20T02:37:12.492Z,1003.03
2022-11-20T02:38:12.455Z,1003.04
2022-11-20T02:39:12.414Z,1003.06
2022-11-20T02:40:12.377Z,1003.09
2022-11-20T02:41:12.457Z,1003.09
2022-11-20T02:42:12.305Z,1003.08
2022-11-20T02:43:12.262Z,1003.14
2022-11-20T02:44:12.222Z,1003.05
2022-11-20T02:45:12.242Z,1003.10
2022-11-20T02:46:12.150Z,1003.13
2022-11-20T02:47:12.102Z,1003.14
2022-11-20T02:48:12.070Z,1003.12
2022-11-20T02:49:12.030Z,1003.12
2022-11-20T02:50:11.991Z,1003.15
2022-11-20T02:51:11.950Z,1003.11
2022-11-20T02:52:11.916Z,1003.09
2022-11-20T02:53:11.872Z,1003.10
2022-11-20T02:54:11.836Z,1003.08
2022-11-20T02:55:11.796Z,1003.06
2022-11-20T02:56:11.761Z,1003.06
2022-11-20T02:57:11.718Z,1003.05
2022-11-20T02:58:11.687Z,1003.05
2022-11-20T02:59:11.640Z,1003.08
2022-11-20T03:00:11.602Z,1003.08
2022-11-20T03:01:11.647Z,1003.04
2022-11-20T03:02:11.534Z,1003.06
2022-11-20T03:03:11.494Z,1003.03
2022-11-20T03:04:11.448Z,1003.01
2022-11-20T03:05:11.414Z,1003.01
2022-11-20T03:06:11.396Z,1003.02
2022-11-20T03:07:11.388Z,1002.99
2022-11-20T03:08:11.297Z,1003.05
2022-11-20T03:09:11.256Z,1002.99
2022-11-20T03:10:11.217Z,1003.01
2022-11-20T03:11:11.181Z,1003.03
2022-11-20T03:12:11.139Z,1003.00
2022-11-20T03:13:11.101Z,1003.01
2022-11-20T03:14:11.070Z,1002.99
2022-11-20T03:15:11.080Z,1003.01
2022-11-20T03:16:10.995Z,1003.01
2022-11-20T03:17:10.947Z,1002.98
2022-11-20T03:18:10.929Z,1003.01
2022-11-20T03:19:10.872Z,1003.01
2022-11-20T03:20:10.832Z,1002.99
2022-11-20T03:21:10.849Z,1002.96
2022-11-20T03:22:10.759Z,1003.01
2022-11-20T03:23:10.715Z,1002.98
2022-11-20T03:24:10.680Z,1002.93
2022-11-20T03:25:10.637Z,1002.92
2022-11-20T03:26:10.604Z,1002.90
2022-11-20T03:27:10.563Z,1002.86
2022-11-20T03:28:10.527Z,1002.84
2022-11-20T03:29:10.488Z,1002.86
2022-11-20T03:30:10.446Z,1002.83
2022-11-20T03:31:10.407Z,1002.84
2022-11-20T03:32:10.370Z,1002.86
2022-11-20T03:33:10.332Z,1002.83
2022-11-20T03:34:10.299Z,1002.80
2022-11-20T03:35:10.257Z,1002.80
2022-11-20T03:36:10.218Z,1002.81
2022-11-20T03:37:10.176Z,1002.80
2022-11-20T03:38:10.158Z,1002.79
2022-11-20T03:39:10.102Z,1002.78
2022-11-20T03:40:10.068Z,1002.76
2022-11-20T03:41:10.021Z,1002.76
2022-11-20T03:42:09.986Z,1002.71
2022-11-20T03:43:09.948Z,1002.63
2022-11-20T03:44:09.906Z,1002.66
2022-11-20T03:45:09.876Z,1002.61
2022-11-20T03:46:09.833Z,1002.64
2022-11-20T03:47:09.792Z,1002.69
2022-11-20T03:48:09.752Z,1002.63
2022-11-20T03:49:09.726Z,1002.67
2022-11-20T03:50:09.673Z,1002.65
2022-11-20T03:51:09.637Z,1002.66
2022-11-20T03:52:09.602Z,1002.63
2022-11-20T03:53:09.557Z,1002.70
2022-11-20T03:54:09.521Z,1002.70
2022-11-20T03:55:09.490Z,1002.68
2022-11-20T03:56:09.444Z,1002.64
2022-11-20T03:57:09.409Z,1002.68
2022-11-20T03:58:09.368Z,1002.67
2022-11-20T03:59:09.329Z,1002.65
2022-11-20T04:00:09.298Z,1002.67
2022-11-20T04:01:09.256Z,1002.62
2022-11-20T04:02:09.295Z,1002.60
2022-11-20T04:03:09.173Z,1002.62
2022-11-20T04:04:09.141Z,1002.60
2022-11-20T04:05:09.111Z,1002.63
2022-11-20T04:06:09.067Z,1002.61
2022-11-20T04:07:09.091Z,1002.61
2022-11-20T04:08:08.986Z,1002.57
2022-11-20T04:09:08.945Z,1002.55
2022-11-20T04:10:08.902Z,1002.58
2022-11-20T04:11:08.865Z,1002.60
2022-11-20T04:12:08.833Z,1002.61
2022-11-20T04:13:08.792Z,1002.60
2022-11-20T04:14:08.752Z,1002.62
2022-11-20T04:15:08.726Z,1002.60
2022-11-20T04:16:08.677Z,1002.58
2022-11-20T04:17:08.640Z,1002.60
2022-11-20T04:18:08.634Z,1002.59
2022-11-20T04:19:08.561Z,1002.60
2022-11-20T04:20:08.522Z,1002.61
2022-11-20T04:21:08.481Z,1002.55
2022-11-20T04:22:08.443Z,1002.58
2022-11-20T04:23:08.404Z,1002.58
2022-11-20T04:24:08.368Z,1002.58
2022-11-20T04:25:08.328Z,1002.61
2022-11-20T04:26:08.292Z,1002.59
2022-11-20T04:27:08.296Z,1002.55
2022-11-20T04:28:08.210Z,1002.59
2022-11-20T04:29:08.170Z,1002.60
2022-11-20T04:30:08.134Z,1002.63
2022-11-20T04:31:08.121Z,1002.64
2022-11-20T04:32:08.072Z,1002.59
2022-11-20T04:33:08.015Z,1002.61
2022-11-20T04:34:07.999Z,1002.64
2022-11-20T04:35:07.950Z,1002.61
2022-11-20T04:36:07.902Z,1002.59
2022-11-20T04:37:07.872Z,1002.57
2022-11-20T04:38:07.823Z,1002.56
2022-11-20T04:39:07.784Z,1002.59
2022-11-20T04:40:07.744Z,1002.62
2022-11-20T04:41:07.705Z,1002.62
2022-11-20T04:42:07.673Z,1002.62
2022-11-20T04:43:07.632Z,1002.67
2022-11-20T04:44:07.595Z,1002.66
2022-11-20T04:45:07.553Z,1002.65
2022-11-20T04:46:07.544Z,1002.65
2022-11-20T04:47:07.474Z,1002.66
2022-11-20T04:48:07.434Z,1002.67
2022-11-20T04:49:07.402Z,1002.67
2022-11-20T04:50:07.391Z,1002.69
2022-11-20T04:51:07.334Z,1002.69
2022-11-20T04:52:07.282Z,1002.72
2022-11-20T04:53:07.242Z,1002.66
2022-11-20T04:54:07.207Z,1002.68
2022-11-20T04:55:07.166Z,1002.70
2022-11-20T04:56:07.133Z,1002.70
2022-11-20T04:57:12.907Z,1002.70
2022-11-20T04:58:07.053Z,1002.70
2022-11-20T04:59:07.014Z,1002.70
2022-11-20T05:00:06.972Z,1002.64
2022-11-20T05:01:06.997Z,1002.68
2022-11-20T05:02:06.898Z,1002.70
2022-11-20T05:03:06.854Z,1002.65
2022-11-20T05:04:06.822Z,1002.67
2022-11-20T05:05:06.784Z,1002.65
2022-11-20T05:06:06.760Z,1002.68
2022-11-20T05:07:06.733Z,1002.66
2022-11-20T05:08:06.665Z,1002.64
2022-11-20T05:09:06.626Z,1002.68
2022-11-20T05:10:06.602Z,1002.62
2022-11-20T05:11:06.553Z,1002.63
2022-11-20T05:12:06.511Z,1002.62
2022-11-20T05:13:06.469Z,1002.63
2022-11-20T05:14:06.433Z,1002.68
2022-11-20T05:15:06.398Z,1002.70
2022-11-20T05:16:06.356Z,1002.68
2022-11-20T05:17:06.317Z,1002.71
2022-11-20T05:18:06.280Z,1002.72
2022-11-20T05:19:06.237Z,1002.73
2022-11-20T05:20:06.216Z,1002.71
2022-11-20T05:21:06.165Z,1002.70
2022-11-20T05:22:06.120Z,1002.71
2022-11-20T05:23:06.086Z,1002.70
2022-11-20T05:24:06.045Z,1002.72
2022-11-20T05:25:06.013Z,1002.70
2022-11-20T05:26:05.978Z,1002.68
2022-11-20T05:27:05.939Z,1002.72
2022-11-20T05:28:05.891Z,1002.69
2022-11-20T05:29:05.855Z,1002.67
2022-11-20T05:30:05.817Z,1002.67
2022-11-20T05:31:05.831Z,1002.69
2022-11-20T05:32:05.740Z,1002.71
2022-11-20T05:33:05.770Z,1002.74
2022-11-20T05:34:05.658Z,1002.71
2022-11-20T05:35:05.624Z,1002.67
2022-11-20T05:36:05.587Z,1002.67
2022-11-20T05:37:05.587Z,1002.70
2022-11-20T05:38:05.508Z,1002.70
2022-11-20T05:39:05.464Z,1002.66
2022-11-20T05:40:05.426Z,1002.64
2022-11-20T05:41:05.390Z,1002.66
2022-11-20T05:42:05.360Z,1002.64
2022-11-20T05:43:05.334Z,1002.63
2022-11-20T05:44:05.275Z,1002.68
2022-11-20T05:45:05.237Z,1002.60
2022-11-20T05:46:05.199Z,1002.63
2022-11-20T05:47:05.156Z,1002.64
2022-11-20T05:48:05.118Z,1002.63
2022-11-20T05:49:05.078Z,1002.66
2022-11-20T05:50:05.061Z,1002.66
2022-11-20T05:51:04.999Z,1002.65
2022-11-20T05:52:04.966Z,1002.67
2022-11-20T05:53:04.924Z,1002.69
2022-11-20T05:54:04.888Z,1002.66
2022-11-20T05:55:04.848Z,1002.67
2022-11-20T05:56:04.859Z,1002.61
2022-11-20T05:57:04.765Z,1002.57
2022-11-20T05:58:04.729Z,1002.57
2022-11-20T05:59:04.691Z,1002.58
2022-11-20T06:00:04.652Z,1002.59
2022-11-20T06:01:04.614Z,1002.60
2022-11-20T06:02:04.577Z,1002.55
2022-11-20T06:03:04.587Z,1002.52
2022-11-20T06:04:04.505Z,1002.51
2022-11-20T06:05:04.466Z,1002.53
2022-11-20T06:06:04.422Z,1002.52
2022-11-20T06:07:04.440Z,1002.55
2022-11-20T06:08:04.345Z,1002.56
2022-11-20T06:09:04.303Z,1002.55
2022-11-20T06:10:04.265Z,1002.52
2022-11-20T06:11:04.232Z,1002.56
2022-11-20T06:12:04.192Z,1002.54
2022-11-20T06:13:04.193Z,1002.51
2022-11-20T06:14:04.111Z,1002.53
2022-11-20T06:15:04.071Z,1002.54
2022-11-20T06:16:04.033Z,1002.51
2022-11-20T06:17:03.993Z,1002.51
2022-11-20T06:18:03.965Z,1002.52
2022-11-20T06:19:03.917Z,1002.48
2022-11-20T06:20:03.883Z,1002.44
2022-11-20T06:21:03.837Z,1002.48
2022-11-20T06:22:03.801Z,1002.48
2022-11-20T06:23:03.766Z,1002.52
2022-11-20T06:24:03.725Z,1002.55
2022-11-20T06:25:03.692Z,1002.61
2022-11-20T06:26:03.651Z,1002.63
2022-11-20T06:27:03.614Z,1002.65
2022-11-20T06:28:03.574Z,1002.64
2022-11-20T06:29:03.532Z,1002.66
2022-11-20T06:30:03.519Z,1002.63
2022-11-20T06:31:03.455Z,1002.70
2022-11-20T06:32:03.419Z,1002.72
2022-11-20T06:33:03.380Z,1002.73
2022-11-20T06:34:03.336Z,1002.69
2022-11-20T06:35:03.379Z,1002.69
2022-11-20T06:36:07.453Z,1002.70
2022-11-20T06:37:03.221Z,1002.70
2022-11-20T06:38:03.184Z,1002.69
2022-11-20T06:39:03.143Z,1002.70
2022-11-20T06:40:03.108Z,1002.67
2022-11-20T06:41:03.067Z,1002.71
2022-11-20T06:42:03.065Z,1002.73
2022-11-20T06:43:02.990Z,1002.70
2022-11-20T06:44:02.953Z,1002.71
2022-11-20T06:45:02.916Z,1002.73
2022-11-20T06:46:02.902Z,1002.77
2022-11-20T06:47:02.840Z,1002.78
2022-11-20T06:48:02.796Z,1002.82
2022-11-20T06:49:02.760Z,1002.79
2022-11-20T06:50:02.723Z,1002.83
2022-11-20T06:51:02.699Z,1002.88
2022-11-20T06:52:02.642Z,1002.89
2022-11-20T06:53:02.602Z,1002.91
2022-11-20T06:54:03.214Z,1002.95
2022-11-20T06:55:02.538Z,1002.92
2022-11-20T06:56:02.490Z,1002.91
2022-11-20T06:57:02.453Z,1002.90
2022-11-20T06:58:02.411Z,1002.92
2022-11-20T06:59:02.375Z,1002.86
2022-11-20T07:00:02.339Z,1002.91
2022-11-20T07:01:02.346Z,1002.86
2022-11-20T07:02:02.306Z,1002.87
2022-11-20T07:03:02.220Z,1002.86
2022-11-20T07:04:02.179Z,1002.88
2022-11-20T07:05:02.141Z,1002.94
2022-11-20T07:06:02.110Z,1002.97
2022-11-20T07:07:02.104Z,1002.98
2022-11-20T07:08:02.078Z,1003.03
2022-11-20T07:09:01.990Z,1002.99
2022-11-20T07:10:01.947Z,1003.00
2022-11-20T07:11:01.906Z,1003.01
2022-11-20T07:12:01.876Z,1003.02
2022-11-20T07:13:01.837Z,1002.99
2022-11-20T07:14:01.801Z,1003.01
2022-11-20T07:15:01.758Z,1003.04
2022-11-20T07:16:01.721Z,1003.04
2022-11-20T07:17:01.677Z,1003.05
2022-11-20T07:18:01.647Z,1003.06
2022-11-20T07:19:01.599Z,1003.11
2022-11-20T07:20:01.571Z,1003.11
2022-11-20T07:21:01.529Z,1003.11
2022-11-20T07:22:01.488Z,1003.12
2022-11-20T07:23:01.448Z,1003.11
2022-11-20T07:24:01.412Z,1003.12
2022-11-20T07:25:01.375Z,1003.16
2022-11-20T07:26:01.335Z,1003.13
2022-11-20T07:27:01.303Z,1003.15
2022-11-20T07:28:01.262Z,1003.14
2022-11-20T07:29:01.221Z,1003.11
2022-11-20T07:30:01.186Z,1003.13
2022-11-20T07:31:01.143Z,1003.12
2022-11-20T07:32:01.098Z,1003.08
2022-11-20T07:33:01.059Z,1003.09
2022-11-20T07:34:01.042Z,1003.10
2022-11-20T07:35:01.000Z,1003.10
2022-11-20T07:36:00.961Z,1003.09
2022-11-20T07:37:02.219Z,1003.07
2022-11-20T07:38:00.886Z,1003.04
2022-11-20T07:39:00.830Z,1003.05
2022-11-20T07:40:00.798Z,1003.03
2022-11-20T07:41:00.769Z,1003.01
2022-11-20T07:42:00.721Z,1003.01
2022-11-20T07:43:00.682Z,1003.02
2022-11-20T07:44:00.644Z,1003.02
2022-11-20T07:45:00.605Z,1003.00
2022-11-20T07:46:00.564Z,1003.02
2022-11-20T07:47:00.525Z,1003.01
2022-11-20T07:48:00.485Z,1003.05
2022-11-20T07:49:00.447Z,1002.99
2022-11-20T07:50:00.410Z,1002.99
2022-11-20T07:51:00.367Z,1003.00
2022-11-20T07:52:04.543Z,1003.02
2022-11-20T07:53:00.359Z,1002.99
2022-11-20T07:54:00.255Z,1002.99
2022-11-20T07:55:00.229Z,1003.00
2022-11-20T07:56:00.179Z,1003.01
2022-11-20T07:57:00.136Z,1003.01
2022-11-20T07:58:00.141Z,1003.01
2022-11-20T07:59:00.065Z,1003.01
2022-11-20T08:00:00.025Z,1002.99
2022-11-20T08:01:00.033Z,1002.97
2022-11-20T08:01:59.946Z,1002.96
2022-11-20T08:02:59.907Z,1003.00
2022-11-20T08:03:59.870Z,1002.99
2022-11-20T08:04:59.827Z,1003.00
2022-11-20T08:05:59.801Z,1002.97
2022-11-20T08:06:59.847Z,1002.97
2022-11-20T08:07:59.715Z,1002.98
2022-11-20T08:08:59.679Z,1002.98
2022-11-20T08:09:59.649Z,1002.99
2022-11-20T08:10:59.598Z,1003.01
2022-11-20T08:11:59.559Z,1002.94
2022-11-20T08:12:59.523Z,1002.89
2022-11-20T08:13:59.484Z,1002.90
2022-11-20T08:14:59.443Z,1002.91
2022-11-20T08:15:59.414Z,1002.86
2022-11-20T08:16:59.366Z,1002.87
2022-11-20T08:18:29.030Z,1002.86
2022-11-20T08:18:59.295Z,1002.87
2022-11-20T08:19:59.251Z,1002.87
2022-11-20T08:20:59.217Z,1002.85
2022-11-20T08:21:59.178Z,1002.88
2022-11-20T08:22:59.140Z,1002.91
2022-11-20T08:23:59.100Z,1002.90
2022-11-20T08:24:59.065Z,1002.90
2022-11-20T08:25:59.031Z,1002.90
2022-11-20T08:26:58.984Z,1002.90
2022-11-20T08:28:00.384Z,1002.90
2022-11-20T08:28:58.953Z,1002.89
2022-11-20T08:29:58.870Z,1002.93
2022-11-20T08:30:58.828Z,1002.91
2022-11-20T08:31:58.852Z,1002.90
2022-11-20T08:32:58.757Z,1002.89
2022-11-20T08:33:58.752Z,1002.86
2022-11-20T08:34:58.679Z,1002.91
2022-11-20T08:35:58.635Z,1002.94
2022-11-20T08:36:58.605Z,1002.94
2022-11-20T08:37:58.562Z,1002.96
2022-11-20T08:38:58.521Z,1003.04
2022-11-20T08:39:58.492Z,1003.03
2022-11-20T08:40:58.449Z,1002.95
2022-11-20T08:41:58.410Z,1002.94
2022-11-20T08:42:58.368Z,1002.88
2022-11-20T08:43:58.333Z,1002.95
2022-11-20T08:44:58.293Z,1002.96
2022-11-20T08:45:58.256Z,1002.95
2022-11-20T08:46:58.219Z,1002.93
2022-11-20T08:47:58.177Z,1002.89
2022-11-20T08:48:58.136Z,1002.93
2022-11-20T08:49:58.105Z,1002.95
2022-11-20T08:50:58.064Z,1002.93
2022-11-20T08:51:58.030Z,1002.90
2022-11-20T08:52:57.994Z,1002.91
2022-11-20T08:53:57.961Z,1002.92
2022-11-20T08:54:57.997Z,1002.85
2022-11-20T08:55:57.880Z,1002.87
2022-11-20T08:56:57.833Z,1002.84
2022-11-20T08:57:57.801Z,1002.89
2022-11-20T09:00:05.935Z,1002.83
2022-11-20T09:00:57.721Z,1002.88
2022-11-20T09:01:57.645Z,1002.87
2022-11-20T09:02:57.603Z,1002.87
2022-11-20T09:03:57.571Z,1002.90
2022-11-20T09:04:57.545Z,1002.91
2022-11-20T09:05:57.491Z,1002.91
2022-11-20T09:06:57.523Z,1002.92
2022-11-20T09:07:57.427Z,1002.90
2022-11-20T09:08:59.714Z,1002.94
2022-11-20T09:10:22.259Z,1002.87
2022-11-20T09:10:57.297Z,1002.92
2022-11-20T09:11:57.260Z,1002.88
2022-11-20T09:12:57.227Z,1002.88
2022-11-20T09:13:57.191Z,1002.83
2022-11-20T09:14:57.154Z,1002.79
2022-11-20T09:15:57.108Z,1002.78
2022-11-20T09:16:57.075Z,1002.78
2022-11-20T09:17:57.041Z,1002.77
2022-11-20T09:19:20.252Z,1002.75
2022-11-20T09:19:56.955Z,1002.75
2022-11-20T09:20:56.943Z,1002.75
2022-11-20T09:21:59.728Z,1002.76
2022-11-20T09:22:56.843Z,1002.80
2022-11-20T09:23:56.803Z,1002.84
2022-11-20T09:24:56.772Z,1002.85
2022-11-20T09:25:56.733Z,1002.84
2022-11-20T09:26:56.688Z,1002.84
2022-11-20T09:27:56.665Z,1002.80
2022-11-20T09:28:58.084Z,1002.80
2022-11-20T09:29:56.579Z,1002.77
2022-11-20T09:30:56.546Z,1002.78
2022-11-20T09:31:56.504Z,1002.74
2022-11-20T09:32:56.469Z,1002.73
2022-11-20T09:33:56.422Z,1002.72
2022-11-20T09:34:56.493Z,1002.72
2022-11-20T09:35:56.354Z,1002.70
2022-11-20T09:36:56.615Z,1002.71
2022-11-20T09:37:56.281Z,1002.70
2022-11-20T09:38:56.238Z,1002.71
2022-11-20T09:39:56.200Z,1002.70
2022-11-20T09:40:56.165Z,1002.75
2022-11-20T09:41:56.119Z,1002.75
2022-11-20T09:42:56.084Z,1002.77
2022-11-20T09:43:56.121Z,1002.76
2022-11-20T09:44:56.010Z,1002.80
2022-11-20T09:45:55.972Z,1002.77
2022-11-20T09:46:55.936Z,1002.77
2022-11-20T09:47:55.898Z,1002.76
2022-11-20T09:48:55.858Z,1002.75
2022-11-20T09:49:55.822Z,1002.77
2022-11-20T09:50:55.789Z,1002.71
2022-11-20T09:51:55.742Z,1002.76
2022-11-20T09:52:55.747Z,1002.77
2022-11-20T09:53:55.668Z,1002.78
2022-11-20T09:54:55.631Z,1002.78
2022-11-20T09:55:55.605Z,1002.79
2022-11-20T09:56:55.566Z,1002.81
2022-11-20T09:57:55.516Z,1002.78
2022-11-20T09:58:55.484Z,1002.76
2022-11-20T09:59:55.441Z,1002.75
2022-11-20T10:00:55.467Z,1002.76
2022-11-20T10:01:55.372Z,1002.75
2022-11-20T10:02:55.332Z,1002.74
2022-11-20T10:03:55.289Z,1002.72
2022-11-20T10:04:55.271Z,1002.74
2022-11-20T10:05:55.217Z,1002.70
2022-11-20T10:07:10.577Z,1002.67
2022-11-20T10:07:55.184Z,1002.71
2022-11-20T10:08:55.096Z,1002.66
2022-11-20T10:09:55.060Z,1002.63
2022-11-20T10:10:55.026Z,1002.65
2022-11-20T10:11:54.989Z,1002.62
2022-11-20T10:12:54.947Z,1002.59
2022-11-20T10:13:54.914Z,1002.57
2022-11-20T10:14:54.879Z,1002.57
2022-11-20T10:15:54.837Z,1002.51
2022-11-20T10:16:54.800Z,1002.52
2022-11-20T10:17:54.759Z,1002.46
2022-11-20T10:18:54.724Z,1002.44
2022-11-20T10:19:54.688Z,1002.45
2022-11-20T10:20:54.654Z,1002.44
2022-11-20T10:21:54.606Z,1002.43
2022-11-20T10:22:54.572Z,1002.44
2022-11-20T10:23:54.539Z,1002.41
2022-11-20T10:24:54.490Z,1002.36
2022-11-20T10:25:54.460Z,1002.36
2022-11-20T10:26:54.424Z,1002.33
2022-11-20T10:27:54.380Z,1002.31
2022-11-20T10:28:59.179Z,1002.28
2022-11-20T10:29:54.307Z,1002.32
2022-11-20T10:30:54.269Z,1002.25
2022-11-20T10:31:54.231Z,1002.26
2022-11-20T10:32:54.199Z,1002.23
2022-11-20T10:34:11.652Z,1002.20
2022-11-20T10:34:54.113Z,1002.17
2022-11-20T10:35:54.080Z,1002.14
2022-11-20T10:36:54.043Z,1002.15
2022-11-20T10:37:54.014Z,1002.11
2022-11-20T10:38:53.970Z,1002.16
2022-11-20T10:39:53.943Z,1002.17
2022-11-20T10:40:53.886Z,1002.18
2022-11-20T10:41:53.858Z,1002.15
2022-11-20T10:42:53.812Z,1002.14
2022-11-20T10:43:53.776Z,1002.11
2022-11-20T10:44:56.530Z,1002.12
2022-11-20T10:45:53.700Z,1002.13
2022-11-20T10:46:53.662Z,1002.10
2022-11-20T10:47:53.629Z,1002.07
2022-11-20T10:48:53.594Z,1002.06
2022-11-20T10:49:53.557Z,1002.05
2022-11-20T10:50:53.513Z,1002.07
2022-11-20T10:51:53.481Z,1002.00
2022-11-20T10:52:53.436Z,1002.00
2022-11-20T10:53:53.409Z,1002.05
2022-11-20T10:54:53.374Z,1002.02
2022-11-20T10:55:53.334Z,1002.04
2022-11-20T10:56:53.284Z,1002.05
2022-11-20T10:57:53.251Z,1002.00
2022-11-20T10:58:53.209Z,1002.02
2022-11-20T10:59:53.173Z,1001.96
2022-11-20T11:00:53.154Z,1001.93
2022-11-20T11:01:53.122Z,1001.95
2022-11-20T11:02:53.061Z,1001.88
2022-11-20T11:03:53.024Z,1001.84
2022-11-20T11:04:52.985Z,1001.80
2022-11-20T11:05:52.946Z,1001.84
2022-11-20T11:06:52.909Z,1001.80
2022-11-20T11:07:52.876Z,1001.79
2022-11-20T11:08:52.832Z,1001.80
2022-11-20T11:09:52.797Z,1001.82
2022-11-20T11:10:52.779Z,1001.77
2022-11-20T11:11:52.733Z,1001.76
2022-11-20T11:12:52.685Z,1001.70
2022-11-20T11:13:52.647Z,1001.69
2022-11-20T11:14:52.608Z,1001.67
2022-11-20T11:15:52.573Z,1001.67
2022-11-20T11:16:52.544Z,1001.65
2022-11-20T11:17:52.499Z,1001.64
2022-11-20T11:18:52.454Z,1001.64
2022-11-20T11:19:52.420Z,1001.64
2022-11-20T11:20:52.393Z,1001.57
2022-11-20T11:21:55.418Z,1001.57
2022-11-20T11:22:52.302Z,1001.54
2022-11-20T11:23:52.273Z,1001.53
2022-11-20T11:24:52.236Z,1001.50
2022-11-20T11:25:52.195Z,1001.49
2022-11-20T11:26:52.156Z,1001.46
2022-11-20T11:27:52.119Z,1001.43
2022-11-20T11:28:52.088Z,1001.40
2022-11-20T11:29:52.043Z,1001.35
2022-11-20T11:30:52.004Z,1001.35
2022-11-20T11:31:51.975Z,1001.35
2022-11-20T11:32:51.940Z,1001.33
2022-11-20T11:33:51.942Z,1001.29
2022-11-20T11:34:51.855Z,1001.28
2022-11-20T11:35:51.979Z,1001.27
2022-11-20T11:36:51.778Z,1001.28
2022-11-20T11:37:51.745Z,1001.28
2022-11-20T11:38:51.706Z,1001.24
2022-11-20T11:40:03.961Z,1001.25
2022-11-20T11:40:51.629Z,1001.24
2022-11-20T11:41:51.605Z,1001.24
2022-11-20T11:42:51.557Z,1001.19
2022-11-20T11:43:51.528Z,1001.22
2022-11-20T11:44:51.486Z,1001.21
2022-11-20T11:45:51.443Z,1001.18
2022-11-20T11:46:51.406Z,1001.16
2022-11-20T11:47:51.369Z,1001.19
2022-11-20T11:48:51.443Z,1001.18
2022-11-20T11:49:51.334Z,1001.10
2022-11-20T11:50:51.255Z,1001.07
2022-11-20T11:51:51.229Z,1001.05
2022-11-20T11:52:51.181Z,1001.05
2022-11-20T11:53:51.142Z,1000.99
2022-11-20T11:54:51.104Z,1000.99
2022-11-20T11:55:51.072Z,1000.94
2022-11-20T11:56:51.030Z,1000.92
2022-11-20T11:57:50.994Z,1000.88
2022-11-20T11:58:50.955Z,1000.88
2022-11-20T11:59:50.928Z,1000.88
2022-11-20T12:00:50.884Z,1000.85
2022-11-20T12:01:50.880Z,1000.83
2022-11-20T12:02:50.818Z,1000.84
2022-11-20T12:03:50.770Z,1000.80
2022-11-20T12:04:50.739Z,1000.82
2022-11-20T12:05:50.706Z,1000.78